Terminal Aerodrome Forecast
Issued by NWS Charleston, WV

Home | Current Version | Previous Version | Text Only | Print | Product List | Glossary On
Versions: 1 2 3 4 5 6 7 8 9 10 11 12 13 14 15 16 17 18 19 20 21 22
000
FTUS41 KRLX 301100
TAFPKB
TAF
KPKB 301138Z 3012/3112 30006KT P6SM BKN035
     FM301500 28009G16KT P6SM SCT040
     FM302300 27008KT P6SM SCT150
     FM310600 23005KT P6SM BKN060=

USA.gov is the U.S. government's official web portal to all federal, state and local government web resources and services.